createdAt,value
2018-09-12T00:00:19.141Z,22.30
2018-09-12T00:02:47.436Z,22.30
2018-09-12T00:05:15.792Z,22.30
2018-09-12T00:07:44.034Z,22.30
2018-09-12T00:10:12.325Z,22.40
2018-09-12T00:12:40.606Z,22.40
2018-09-12T00:15:10.239Z,22.40
2018-09-12T00:17:38.532Z,22.40
2018-09-12T00:20:06.834Z,22.40
2018-09-12T00:22:35.250Z,22.50
2018-09-12T00:25:03.577Z,22.50
2018-09-12T00:27:31.905Z,22.50
2018-09-12T00:30:00.314Z,22.40
2018-09-12T00:32:28.621Z,22.40
2018-09-12T00:34:58.801Z,22.40
2018-09-12T00:37:29.979Z,22.50
2018-09-12T00:39:58.281Z,22.50
2018-09-12T00:42:26.553Z,22.50
2018-09-12T00:44:54.893Z,22.50
2018-09-12T00:47:23.202Z,22.60
2018-09-12T00:49:52.616Z,22.50
2018-09-12T00:52:20.919Z,22.50
2018-09-12T00:54:49.242Z,22.50
2018-09-12T00:57:18.509Z,22.50
2018-09-12T00:59:46.813Z,22.50
2018-09-12T01:02:16.118Z,22.50
2018-09-12T01:04:44.497Z,22.40
2018-09-12T01:07:13.836Z,22.40
2018-09-12T01:09:42.374Z,22.40
2018-09-12T01:12:10.679Z,22.40
2018-09-12T01:14:40.006Z,22.30
2018-09-12T01:17:08.325Z,22.40
2018-09-12T01:19:37.633Z,22.40
2018-09-12T01:22:06.059Z,22.40
2018-09-12T01:24:34.388Z,22.30
2018-09-12T01:27:02.714Z,22.30
2018-09-12T01:29:31.809Z,22.30
2018-09-12T01:32:00.829Z,22.20
2018-09-12T01:34:29.853Z,22.20
2018-09-12T01:36:58.203Z,22.10
2018-09-12T01:39:26.506Z,22.10
2018-09-12T01:41:54.860Z,22.10
2018-09-12T01:44:23.731Z,22.00
2018-09-12T01:46:52.058Z,22.00
2018-09-12T01:49:21.352Z,22.00
2018-09-12T01:51:50.217Z,22.00
2018-09-12T01:54:18.986Z,22.00
2018-09-12T01:56:47.299Z,22.00
2018-09-12T01:59:15.639Z,22.00
2018-09-12T02:01:45.144Z,21.90
2018-09-12T02:04:13.460Z,21.90
2018-09-12T02:06:41.767Z,21.90
2018-09-12T02:09:12.241Z,21.90
2018-09-12T02:11:40.566Z,21.90
2018-09-12T02:14:08.885Z,22.00
2018-09-12T02:16:37.216Z,21.90
2018-09-12T02:19:05.698Z,21.90
2018-09-12T02:21:34.003Z,21.80
2018-09-12T02:24:02.341Z,21.80
2018-09-12T02:26:30.643Z,21.70
2018-09-12T02:28:58.954Z,21.70
2018-09-12T02:31:28.322Z,21.60
2018-09-12T02:33:56.626Z,21.60
2018-09-12T02:36:28.977Z,21.60
2018-09-12T02:38:58.591Z,21.70
2018-09-12T02:41:26.921Z,21.80
2018-09-12T02:43:55.447Z,21.80
2018-09-12T02:46:23.858Z,21.70
2018-09-12T02:48:52.609Z,21.70
2018-09-12T02:51:20.926Z,21.50
2018-09-12T02:53:49.253Z,21.40
2018-09-12T02:56:18.028Z,21.30
2018-09-12T02:58:46.348Z,21.40
2018-09-12T03:01:14.692Z,21.40
2018-09-12T03:03:43.279Z,21.40
2018-09-12T03:06:11.627Z,21.40
2018-09-12T03:08:39.933Z,21.40
2018-09-12T03:11:08.286Z,21.30
2018-09-12T03:13:36.611Z,21.20
2018-09-12T03:16:04.950Z,21.10
2018-09-12T03:18:33.284Z,21.10
2018-09-12T03:21:01.789Z,21.20
2018-09-12T03:23:29.973Z,21.30
2018-09-12T03:25:58.311Z,21.30
2018-09-12T03:28:26.634Z,21.40
2018-09-12T03:30:54.964Z,21.50
2018-09-12T03:33:23.305Z,21.50
2018-09-12T03:35:51.629Z,21.60
2018-09-12T03:38:20.942Z,21.60
2018-09-12T03:40:49.253Z,21.60
2018-09-12T03:43:17.564Z,21.60
2018-09-12T03:45:45.978Z,21.60
2018-09-12T03:48:15.342Z,21.60
2018-09-12T03:50:43.663Z,21.50
2018-09-12T03:53:12.014Z,21.50
2018-09-12T03:55:40.325Z,21.40
2018-09-12T03:58:08.641Z,21.40
2018-09-12T04:00:36.997Z,21.30
2018-09-12T04:03:05.434Z,21.20
2018-09-12T04:05:33.808Z,21.20
2018-09-12T04:08:02.076Z,21.10
2018-09-12T04:10:30.368Z,21.00
2018-09-12T04:12:58.644Z,21.00
2018-09-12T04:15:26.968Z,20.90
2018-09-12T04:17:56.272Z,20.90
2018-09-12T04:20:24.605Z,21.00
2018-09-12T04:22:53.950Z,21.10
2018-09-12T04:25:22.252Z,21.00
2018-09-12T04:27:51.597Z,21.00
2018-09-12T04:30:19.894Z,20.90
2018-09-12T04:32:48.202Z,21.00
2018-09-12T04:35:17.549Z,21.00
2018-09-12T04:37:45.903Z,21.10
2018-09-12T04:40:14.222Z,21.10
2018-09-12T04:42:42.571Z,21.10
2018-09-12T04:45:10.810Z,21.10
2018-09-12T04:47:39.133Z,21.10
2018-09-12T04:50:07.479Z,21.10
2018-09-12T04:52:36.028Z,20.90
2018-09-12T04:55:04.774Z,20.80
2018-09-12T04:57:34.234Z,20.70
2018-09-12T05:00:03.177Z,20.60
2018-09-12T05:02:31.713Z,20.60
2018-09-12T05:05:00.035Z,20.50
2018-09-12T05:07:29.339Z,20.40
2018-09-12T05:09:57.676Z,20.40
2018-09-12T05:12:25.982Z,20.60
2018-09-12T05:14:54.303Z,20.60
2018-09-12T05:17:22.637Z,20.70
2018-09-12T05:19:50.917Z,20.70
2018-09-12T05:22:19.257Z,20.80
2018-09-12T05:24:47.590Z,20.80
2018-09-12T05:27:15.844Z,20.80
2018-09-12T05:29:50.660Z,20.90
2018-09-12T05:32:19.036Z,20.90
2018-09-12T05:34:47.333Z,20.90
2018-09-12T05:37:15.645Z,21.00
2018-09-12T05:39:44.061Z,21.00
2018-09-12T05:42:12.556Z,21.10
2018-09-12T05:44:40.906Z,21.10
2018-09-12T05:47:09.244Z,21.10
2018-09-12T05:49:37.564Z,21.10
2018-09-12T05:52:06.816Z,21.10
2018-09-12T05:54:35.381Z,21.20
2018-09-12T05:57:05.823Z,21.10
2018-09-12T05:59:36.037Z,21.20
2018-09-12T06:02:04.895Z,21.10
2018-09-12T06:04:33.249Z,21.10
2018-09-12T06:07:01.638Z,21.10
2018-09-12T06:09:29.840Z,21.10
2018-09-12T06:11:58.158Z,21.20
2018-09-12T06:14:26.531Z,21.10
2018-09-12T06:16:55.829Z,21.10
2018-09-12T06:19:24.152Z,21.20
2018-09-12T06:21:52.475Z,21.20
2018-09-12T06:24:20.846Z,21.20
2018-09-12T06:26:49.181Z,21.10
2018-09-12T06:29:17.601Z,21.20
2018-09-12T06:31:45.962Z,21.10
2018-09-12T06:34:14.268Z,21.00
2018-09-12T06:36:42.656Z,21.00
2018-09-12T06:39:12.259Z,21.00
2018-09-12T06:41:40.579Z,20.80
2018-09-12T06:44:09.059Z,20.80
2018-09-12T06:46:37.725Z,20.80
2018-09-12T06:49:06.619Z,20.80
2018-09-12T06:51:34.956Z,20.90
2018-09-12T06:54:03.485Z,20.90
2018-09-12T06:56:31.847Z,20.90
2018-09-12T06:59:00.170Z,20.90
2018-09-12T07:01:28.571Z,21.00
2018-09-12T07:03:56.910Z,21.00
2018-09-12T07:06:25.189Z,21.00
2018-09-12T07:08:53.577Z,21.00
2018-09-12T07:11:21.845Z,21.00
2018-09-12T07:13:50.157Z,21.00
2018-09-12T07:16:18.501Z,21.10
2018-09-12T07:18:46.833Z,21.10
2018-09-12T07:21:15.112Z,21.10
2018-09-12T07:23:43.429Z,21.10
2018-09-12T07:26:11.767Z,21.10
2018-09-12T07:28:40.103Z,21.20
2018-09-12T07:31:08.446Z,21.20
2018-09-12T07:33:36.797Z,21.20
2018-09-12T07:36:05.081Z,21.20
2018-09-12T07:38:33.418Z,21.30
2018-09-12T07:41:01.857Z,21.30
2018-09-12T07:43:30.222Z,21.30
2018-09-12T07:45:58.561Z,21.40
2018-09-12T07:48:26.917Z,21.40
2018-09-12T07:50:55.261Z,21.40
2018-09-12T07:53:23.606Z,21.40
2018-09-12T07:55:51.983Z,21.40
2018-09-12T07:58:20.285Z,21.50
2018-09-12T08:00:48.607Z,21.50
2018-09-12T08:03:16.912Z,21.50
2018-09-12T08:05:45.239Z,21.60
2018-09-12T08:08:13.561Z,21.60
2018-09-12T08:10:41.906Z,21.60
2018-09-12T08:13:11.258Z,21.60
2018-09-12T08:15:39.578Z,21.70
2018-09-12T08:18:07.895Z,21.70
2018-09-12T08:20:36.200Z,21.70
2018-09-12T08:23:05.531Z,21.80
2018-09-12T08:25:33.842Z,21.80
2018-09-12T08:28:02.154Z,21.80
2018-09-12T08:30:30.465Z,21.80
2018-09-12T08:32:58.786Z,21.80
2018-09-12T08:35:28.122Z,21.90
2018-09-12T08:37:57.439Z,21.90
2018-09-12T08:40:25.814Z,21.90
2018-09-12T08:42:54.130Z,21.90
2018-09-12T08:45:22.434Z,21.90
2018-09-12T08:47:50.821Z,21.90
2018-09-12T08:50:23.470Z,21.90
2018-09-12T08:52:54.223Z,21.90
2018-09-12T08:55:23.528Z,22.00
2018-09-12T08:57:51.844Z,22.00
2018-09-12T09:00:20.241Z,22.00
2018-09-12T09:02:48.477Z,22.00
2018-09-12T09:05:16.796Z,22.00
2018-09-12T09:07:45.118Z,22.00
2018-09-12T09:10:13.459Z,22.00
2018-09-12T09:12:41.769Z,22.00
2018-09-12T09:15:10.093Z,22.00
2018-09-12T09:17:38.421Z,22.10
2018-09-12T09:20:06.758Z,22.10
2018-09-12T09:22:35.057Z,22.10
2018-09-12T09:25:03.370Z,22.10
2018-09-12T09:27:31.714Z,22.10
2018-09-12T09:30:00.012Z,22.10
2018-09-12T09:32:28.451Z,22.10
2018-09-12T09:34:56.743Z,22.10
2018-09-12T09:37:25.062Z,22.10
2018-09-12T09:39:53.401Z,22.10
2018-09-12T09:42:21.743Z,22.10
2018-09-12T09:44:50.074Z,22.10
2018-09-12T09:47:18.393Z,22.10
2018-09-12T09:49:46.765Z,22.10
2018-09-12T09:52:16.093Z,22.10
2018-09-12T09:54:44.514Z,22.10
2018-09-12T09:57:12.782Z,22.10
2018-09-12T09:59:41.168Z,22.10
2018-09-12T10:02:14.938Z,22.10
2018-09-12T10:04:48.905Z,22.20
2018-09-12T10:07:22.526Z,22.10
2018-09-12T10:09:55.161Z,22.20
2018-09-12T10:12:23.485Z,22.10
2018-09-12T10:14:51.778Z,22.10
2018-09-12T10:17:20.133Z,22.20
2018-09-12T10:19:48.429Z,22.20
2018-09-12T10:22:16.752Z,22.20
2018-09-12T10:24:45.140Z,22.20
2018-09-12T10:27:13.479Z,22.20
2018-09-12T10:29:41.805Z,22.20
2018-09-12T10:32:10.149Z,22.20
2018-09-12T10:34:40.785Z,22.20
2018-09-12T10:37:09.149Z,22.20
2018-09-12T10:39:37.478Z,22.20
2018-09-12T10:42:05.766Z,22.20
2018-09-12T10:44:34.083Z,22.20
2018-09-12T10:47:02.454Z,22.20
2018-09-12T10:49:31.819Z,22.20
2018-09-12T10:52:01.426Z,22.20
2018-09-12T10:54:29.905Z,22.20
2018-09-12T10:56:59.271Z,22.20
2018-09-12T10:59:27.606Z,22.20
2018-09-12T11:01:56.956Z,22.20
2018-09-12T11:04:25.346Z,22.20
2018-09-12T11:06:53.629Z,22.20
2018-09-12T11:09:21.933Z,22.20
2018-09-12T11:11:51.322Z,22.20
2018-09-12T11:14:19.650Z,22.20
2018-09-12T11:16:48.049Z,22.20
2018-09-12T11:19:16.376Z,22.20
2018-09-12T11:21:44.733Z,22.30
2018-09-12T11:24:13.951Z,22.30
2018-09-12T11:26:43.397Z,22.30
2018-09-12T11:29:11.745Z,22.30
2018-09-12T11:31:40.086Z,22.30
2018-09-12T11:34:09.476Z,22.30
2018-09-12T11:36:37.746Z,22.30
2018-09-12T11:39:08.583Z,22.30
2018-09-12T11:41:43.601Z,22.30
2018-09-12T11:44:11.938Z,22.30
2018-09-12T11:46:40.288Z,22.30
2018-09-12T11:49:08.641Z,22.30
2018-09-12T11:51:36.934Z,22.30
2018-09-12T11:54:06.093Z,22.30
2018-09-12T11:56:34.447Z,22.30
2018-09-12T11:59:03.071Z,22.30
2018-09-12T12:01:31.366Z,22.30
2018-09-12T12:03:59.684Z,22.40
2018-09-12T12:06:28.053Z,22.40
2018-09-12T12:08:56.605Z,22.40
2018-09-12T12:11:25.007Z,22.40
2018-09-12T12:13:53.356Z,22.40
2018-09-12T12:16:22.706Z,22.40
2018-09-12T12:18:51.887Z,22.40
2018-09-12T12:21:20.250Z,22.40
2018-09-12T12:23:48.657Z,22.40
2018-09-12T12:26:17.058Z,22.40
2018-09-12T12:28:46.381Z,22.50
2018-09-12T12:31:16.345Z,22.50
2018-09-12T12:33:44.672Z,22.40
2018-09-12T12:36:12.967Z,22.50
2018-09-12T12:38:41.329Z,22.50
2018-09-12T12:41:09.670Z,22.50
2018-09-12T12:43:37.953Z,22.50
2018-09-12T12:46:06.361Z,22.50
2018-09-12T12:48:34.666Z,22.50
2018-09-12T12:51:02.989Z,22.50
2018-09-12T12:53:31.273Z,22.60
2018-09-12T12:55:59.621Z,22.60
2018-09-12T12:58:27.934Z,22.50
2018-09-12T13:00:56.295Z,22.60
2018-09-12T13:03:24.596Z,22.60
2018-09-12T13:05:52.916Z,22.60
2018-09-12T13:08:21.259Z,22.60
2018-09-12T13:10:49.621Z,22.60
2018-09-12T13:13:17.974Z,22.60
2018-09-12T13:15:46.273Z,22.60
2018-09-12T13:18:14.580Z,22.60
2018-09-12T13:20:42.903Z,22.60
2018-09-12T13:23:11.218Z,22.70
2018-09-12T13:25:39.531Z,22.70
2018-09-12T13:28:08.895Z,22.70
2018-09-12T13:30:43.814Z,22.70
2018-09-12T13:33:12.120Z,22.70
2018-09-12T13:35:40.487Z,22.70
2018-09-12T13:38:08.805Z,22.70
2018-09-12T13:40:37.109Z,22.70
2018-09-12T13:43:05.472Z,22.70
2018-09-12T13:45:33.798Z,22.70
2018-09-12T13:48:02.171Z,22.70
2018-09-12T13:50:30.487Z,22.70
2018-09-12T13:52:58.843Z,22.70
2018-09-12T13:55:28.168Z,22.70
2018-09-12T13:57:56.477Z,22.70
2018-09-12T14:00:24.845Z,22.80
2018-09-12T14:02:53.198Z,22.80
2018-09-12T14:05:27.086Z,22.80
2018-09-12T14:07:55.445Z,22.70
2018-09-12T14:10:24.801Z,22.80
2018-09-12T14:12:53.092Z,22.80
2018-09-12T14:15:21.594Z,22.80
2018-09-12T14:17:49.910Z,22.80
2018-09-12T14:20:19.249Z,22.80
2018-09-12T14:22:47.667Z,22.80
2018-09-12T14:25:15.978Z,22.80
2018-09-12T14:27:44.289Z,22.80
2018-09-12T14:30:12.609Z,22.80
2018-09-12T14:32:40.906Z,22.80
2018-09-12T14:35:09.293Z,22.90
2018-09-12T14:37:37.827Z,22.90
2018-09-12T14:40:06.217Z,22.90
2018-09-12T14:42:34.546Z,22.90
2018-09-12T14:45:03.989Z,22.90
2018-09-12T14:47:32.272Z,22.90
2018-09-12T14:50:01.658Z,22.90
2018-09-12T14:52:30.038Z,22.90
2018-09-12T14:54:58.346Z,22.90
2018-09-12T14:57:26.677Z,22.90
2018-09-12T14:59:56.026Z,22.90
2018-09-12T15:02:24.366Z,22.90
2018-09-12T15:04:52.700Z,22.90
2018-09-12T15:07:20.989Z,23.00
2018-09-12T15:09:49.325Z,23.00
2018-09-12T15:12:17.651Z,23.00
2018-09-12T15:14:45.982Z,23.00
2018-09-12T15:17:14.339Z,23.00
2018-09-12T15:19:42.666Z,23.00
2018-09-12T15:22:11.032Z,23.00
2018-09-12T15:24:39.362Z,23.00
2018-09-12T15:27:07.686Z,23.10
2018-09-12T15:29:35.999Z,23.10
2018-09-12T15:32:04.319Z,23.10
2018-09-12T15:34:33.671Z,23.10
2018-09-12T15:37:02.048Z,23.10
2018-09-12T15:39:30.350Z,23.10
2018-09-12T15:41:58.678Z,23.10
2018-09-12T15:44:27.022Z,23.10
2018-09-12T15:46:55.359Z,23.10
2018-09-12T15:49:24.706Z,23.10
2018-09-12T15:51:54.039Z,23.10
2018-09-12T15:54:22.359Z,23.10
2018-09-12T15:56:50.703Z,23.10
2018-09-12T15:59:19.025Z,23.10
2018-09-12T16:01:47.386Z,23.20
2018-09-12T16:04:15.785Z,23.20
2018-09-12T16:06:44.121Z,23.20
2018-09-12T16:09:12.447Z,23.20
2018-09-12T16:11:40.827Z,23.20
2018-09-12T16:14:09.174Z,23.20
2018-09-12T16:16:37.525Z,23.20
2018-09-12T16:19:06.232Z,23.20
2018-09-12T16:21:34.552Z,23.20
2018-09-12T16:24:02.981Z,23.20
2018-09-12T16:26:31.355Z,23.20
2018-09-12T16:28:59.722Z,23.20
2018-09-12T16:31:28.073Z,23.20
2018-09-12T16:33:56.414Z,23.20
2018-09-12T16:36:25.186Z,23.20
2018-09-12T16:38:54.524Z,23.20
2018-09-12T16:41:22.877Z,23.20
2018-09-12T16:43:51.373Z,23.20
2018-09-12T16:46:19.749Z,23.20
2018-09-12T16:48:48.117Z,23.20
2018-09-12T16:51:16.514Z,23.20
2018-09-12T16:53:44.894Z,23.20
2018-09-12T16:56:13.303Z,23.30
2018-09-12T16:58:41.606Z,23.30
2018-09-12T17:01:09.921Z,23.30
2018-09-12T17:03:38.362Z,23.30
2018-09-12T17:06:06.686Z,23.30
2018-09-12T17:08:35.021Z,23.30
2018-09-12T17:11:03.366Z,23.30
2018-09-12T17:13:32.722Z,23.30
2018-09-12T17:16:01.031Z,23.30
2018-09-12T17:18:30.389Z,23.30
2018-09-12T17:20:58.807Z,23.30
2018-09-12T17:23:27.133Z,23.30
2018-09-12T17:25:55.446Z,23.40
2018-09-12T17:28:23.877Z,23.40
2018-09-12T17:30:52.390Z,23.30
2018-09-12T17:33:21.836Z,23.40
2018-09-12T17:35:50.242Z,23.40
2018-09-12T17:38:18.631Z,23.40
2018-09-12T17:40:46.926Z,23.40
2018-09-12T17:43:15.261Z,23.40
2018-09-12T17:45:43.590Z,23.40
2018-09-12T17:48:12.049Z,23.40
2018-09-12T17:50:40.430Z,23.40
2018-09-12T17:53:08.826Z,23.40
2018-09-12T17:55:37.272Z,23.50
2018-09-12T17:58:05.615Z,23.40
2018-09-12T18:00:33.974Z,23.50
2018-09-12T18:03:02.286Z,23.50
2018-09-12T18:05:30.630Z,23.50
2018-09-12T18:07:59.083Z,23.50
2018-09-12T18:10:27.442Z,23.50
2018-09-12T18:12:55.758Z,23.50
2018-09-12T18:15:25.154Z,23.50
2018-09-12T18:17:53.502Z,23.50
2018-09-12T18:20:22.034Z,23.50
2018-09-12T18:22:50.348Z,23.50
2018-09-12T18:25:18.665Z,23.50
2018-09-12T18:27:47.041Z,23.50
2018-09-12T18:30:15.510Z,23.60
2018-09-12T18:32:44.047Z,23.50
2018-09-12T18:35:12.816Z,23.50
2018-09-12T18:37:41.229Z,23.60
2018-09-12T18:40:09.602Z,23.60
2018-09-12T18:42:37.995Z,23.60
2018-09-12T18:45:06.411Z,23.60
2018-09-12T18:47:34.741Z,23.60
2018-09-12T18:50:04.307Z,23.60
2018-09-12T18:52:32.625Z,23.60
2018-09-12T18:55:01.064Z,23.60
2018-09-12T18:57:30.390Z,23.60
2018-09-12T18:59:59.799Z,23.60
2018-09-12T19:02:28.225Z,23.60
2018-09-12T19:04:56.595Z,23.60
2018-09-12T19:07:25.963Z,23.60
2018-09-12T19:09:54.269Z,23.60
2018-09-12T19:12:22.611Z,23.70
2018-09-12T19:14:57.658Z,23.60
2018-09-12T19:17:26.148Z,23.60
2018-09-12T19:19:54.501Z,23.60
2018-09-12T19:22:22.991Z,23.60
2018-09-12T19:24:52.310Z,23.60
2018-09-12T19:27:21.660Z,23.70
2018-09-12T19:29:49.992Z,23.60
2018-09-12T19:32:18.424Z,23.70
2018-09-12T19:34:48.071Z,23.70
2018-09-12T19:37:17.532Z,23.70
2018-09-12T19:39:45.914Z,23.70
2018-09-12T19:42:14.313Z,23.70
2018-09-12T19:44:42.662Z,23.70
2018-09-12T19:47:11.024Z,23.70
2018-09-12T19:49:39.391Z,23.70
2018-09-12T19:52:08.225Z,23.70
2018-09-12T19:54:36.555Z,23.70
2018-09-12T19:57:04.866Z,23.70
2018-09-12T19:59:33.869Z,23.70
2018-09-12T20:02:02.185Z,23.70
2018-09-12T20:04:31.308Z,23.70
2018-09-12T20:07:00.391Z,23.70
2018-09-12T20:09:35.171Z,23.70
2018-09-12T20:12:04.538Z,23.70
2018-09-12T20:14:33.789Z,23.70
2018-09-12T20:17:02.760Z,23.70
2018-09-12T20:19:31.552Z,23.70
2018-09-12T20:22:00.172Z,23.70
2018-09-12T20:24:28.693Z,23.70
2018-09-12T20:26:58.090Z,23.80
2018-09-12T20:29:26.444Z,23.80
2018-09-12T20:31:55.023Z,23.70
2018-09-12T20:34:23.372Z,23.70
2018-09-12T20:36:53.518Z,23.70
2018-09-12T20:39:22.643Z,23.70
2018-09-12T20:41:51.770Z,23.70
2018-09-12T20:44:21.748Z,23.80
2018-09-12T20:46:50.166Z,23.80
2018-09-12T20:49:18.512Z,23.80
2018-09-12T20:51:46.838Z,23.80
2018-09-12T20:54:16.977Z,23.80
2018-09-12T20:56:46.845Z,23.80
2018-09-12T20:59:16.249Z,23.80
2018-09-12T21:01:45.172Z,23.80
2018-09-12T21:04:14.182Z,23.80
2018-09-12T21:06:43.367Z,23.80
2018-09-12T21:09:13.423Z,23.80
2018-09-12T21:11:42.572Z,23.80
2018-09-12T21:14:12.750Z,23.80
2018-09-12T21:16:41.829Z,23.80
2018-09-12T21:19:10.156Z,23.80
2018-09-12T21:21:38.502Z,23.80
2018-09-12T21:24:07.834Z,23.80
2018-09-12T21:26:36.138Z,23.80
2018-09-12T21:29:04.493Z,23.80
2018-09-12T21:31:32.829Z,23.80
2018-09-12T21:34:01.133Z,23.80
2018-09-12T21:36:29.450Z,23.80
2018-09-12T21:38:57.802Z,23.80
2018-09-12T21:41:26.182Z,23.80
2018-09-12T21:43:54.515Z,23.80
2018-09-12T21:46:22.830Z,23.80
2018-09-12T21:48:51.176Z,23.80
2018-09-12T21:51:20.534Z,23.80
2018-09-12T21:53:48.924Z,23.90
2018-09-12T21:56:18.224Z,23.90
2018-09-12T21:58:47.540Z,23.80
2018-09-12T22:01:21.292Z,23.90
2018-09-12T22:03:49.611Z,23.80
2018-09-12T22:06:17.916Z,23.70
2018-09-12T22:08:46.364Z,23.50
2018-09-12T22:11:14.649Z,23.30
2018-09-12T22:13:42.994Z,23.20
2018-09-12T22:16:11.313Z,23.10
2018-09-12T22:18:39.626Z,22.90
2018-09-12T22:21:07.941Z,22.80
2018-09-12T22:23:36.264Z,22.70
2018-09-12T22:26:04.607Z,22.60
2018-09-12T22:28:32.897Z,22.60
2018-09-12T22:31:01.242Z,22.60
2018-09-12T22:33:29.613Z,22.70
2018-09-12T22:35:58.128Z,22.70
2018-09-12T22:38:26.436Z,22.80
2018-09-12T22:40:54.776Z,22.80
2018-09-12T22:43:23.097Z,22.70
2018-09-12T22:45:51.461Z,22.60
2018-09-12T22:48:19.769Z,22.50
2018-09-12T22:50:48.102Z,22.40
2018-09-12T22:53:16.398Z,22.30
2018-09-12T22:55:44.743Z,22.20
2018-09-12T22:58:13.029Z,22.20
2018-09-12T23:00:41.382Z,22.20
2018-09-12T23:03:09.686Z,22.00
2018-09-12T23:05:38.027Z,22.00
2018-09-12T23:08:06.365Z,22.00
2018-09-12T23:10:34.657Z,22.00
2018-09-12T23:13:03.035Z,21.90
2018-09-12T23:15:31.346Z,21.80
2018-09-12T23:17:59.681Z,21.90
2018-09-12T23:20:27.991Z,22.00
2018-09-12T23:22:57.346Z,21.90
2018-09-12T23:25:25.657Z,22.00
2018-09-12T23:27:53.946Z,21.80
2018-09-12T23:30:22.249Z,21.60
2018-09-12T23:32:50.608Z,21.60
2018-09-12T23:35:18.915Z,21.50
2018-09-12T23:37:47.207Z,21.50
2018-09-12T23:40:15.753Z,21.50
2018-09-12T23:42:44.225Z,21.60
2018-09-12T23:45:12.570Z,21.60
2018-09-12T23:47:40.935Z,21.70
2018-09-12T23:50:09.272Z,21.60
2018-09-12T23:52:37.614Z,21.60
2018-09-12T23:55:06.238Z,21.50
2018-09-12T23:57:34.569Z,21.60
